sensor_id;sensor_type;location;lat;lon;timestamp;temperature;humidity
31733;DHT22;18312;51.486;7.144;2023-04-24T00:01:20;11.20;99.90
31733;DHT22;18312;51.486;7.144;2023-04-24T00:03:52;11.20;99.90
31733;DHT22;18312;51.486;7.144;2023-04-24T00:06:18;11.10;99.90
31733;DHT22;18312;51.486;7.144;2023-04-24T00:08:47;11.10;99.90
31733;DHT22;18312;51.486;7.144;2023-04-24T00:11:14;11.10;99.90
31733;DHT22;18312;51.486;7.144;2023-04-24T00:13:40;11.00;99.90
31733;DHT22;18312;51.486;7.144;2023-04-24T00:16:08;11.00;99.90
31733;DHT22;18312;51.486;7.144;2023-04-24T00:18:35;11.00;99.90
31733;DHT22;18312;51.486;7.144;2023-04-24T00:21:02;10.90;99.90
31733;DHT22;18312;51.486;7.144;2023-04-24T00:23:28;10.90;99.90
31733;DHT22;18312;51.486;7.144;2023-04-24T00:25:57;10.80;99.90
31733;DHT22;18312;51.486;7.144;2023-04-24T00:28:23;10.80;99.90
31733;DHT22;18312;51.486;7.144;2023-04-24T00:30:50;10.70;99.90
31733;DHT22;18312;51.486;7.144;2023-04-24T00:35:51;10.60;99.90
31733;DHT22;18312;51.486;7.144;2023-04-24T00:38:18;10.60;99.90
31733;DHT22;18312;51.486;7.144;2023-04-24T00:40:45;10.50;99.90
31733;DHT22;18312;51.486;7.144;2023-04-24T00:43:14;10.50;99.90
31733;DHT22;18312;51.486;7.144;2023-04-24T00:45:41;10.50;99.90
31733;DHT22;18312;51.486;7.144;2023-04-24T00:48:08;10.50;99.90
31733;DHT22;18312;51.486;7.144;2023-04-24T00:50:36;10.50;99.90
31733;DHT22;18312;51.486;7.144;2023-04-24T00:53:09;10.50;99.90
31733;DHT22;18312;51.486;7.144;2023-04-24T00:55:35;10.40;99.90
31733;DHT22;18312;51.486;7.144;2023-04-24T00:58:03;10.20;99.90
31733;DHT22;18312;51.486;7.144;2023-04-24T01:00:32;10.20;99.90
31733;DHT22;18312;51.486;7.144;2023-04-24T01:03:06;10.10;99.90
31733;DHT22;18312;51.486;7.144;2023-04-24T01:05:33;10.00;99.90
31733;DHT22;18312;51.486;7.144;2023-04-24T01:08:00;10.10;99.90
31733;DHT22;18312;51.486;7.144;2023-04-24T01:10:27;9.90;99.90
31733;DHT22;18312;51.486;7.144;2023-04-24T01:12:55;9.90;99.90
31733;DHT22;18312;51.486;7.144;2023-04-24T01:15:24;9.80;99.90
31733;DHT22;18312;51.486;7.144;2023-04-24T01:17:52;9.90;99.90
31733;DHT22;18312;51.486;7.144;2023-04-24T01:20:19;9.90;99.90
31733;DHT22;18312;51.486;7.144;2023-04-24T01:22:47;9.90;99.90
31733;DHT22;18312;51.486;7.144;2023-04-24T01:25:14;9.90;99.90
31733;DHT22;18312;51.486;7.144;2023-04-24T01:27:41;10.00;99.90
31733;DHT22;18312;51.486;7.144;2023-04-24T01:30:09;10.00;99.90
31733;DHT22;18312;51.486;7.144;2023-04-24T01:32:36;10.00;99.90
31733;DHT22;18312;51.486;7.144;2023-04-24T01:35:03;10.00;99.90
31733;DHT22;18312;51.486;7.144;2023-04-24T01:37:34;10.00;99.90
31733;DHT22;18312;51.486;7.144;2023-04-24T01:40:04;10.00;99.90
31733;DHT22;18312;51.486;7.144;2023-04-24T01:42:47;10.00;99.90
31733;DHT22;18312;51.486;7.144;2023-04-24T01:45:14;9.80;99.90
31733;DHT22;18312;51.486;7.144;2023-04-24T01:47:41;9.80;99.90
31733;DHT22;18312;51.486;7.144;2023-04-24T01:50:08;9.70;99.90
31733;DHT22;18312;51.486;7.144;2023-04-24T01:52:35;9.70;99.90
31733;DHT22;18312;51.486;7.144;2023-04-24T01:55:04;9.60;99.90
31733;DHT22;18312;51.486;7.144;2023-04-24T01:57:31;9.50;99.90
31733;DHT22;18312;51.486;7.144;2023-04-24T01:59:58;9.50;99.90
31733;DHT22;18312;51.486;7.144;2023-04-24T02:02:25;9.40;99.90
31733;DHT22;18312;51.486;7.144;2023-04-24T02:04:52;9.40;99.90
31733;DHT22;18312;51.486;7.144;2023-04-24T02:07:19;9.40;99.90
31733;DHT22;18312;51.486;7.144;2023-04-24T02:09:46;9.30;99.90
31733;DHT22;18312;51.486;7.144;2023-04-24T02:12:14;9.30;99.90
31733;DHT22;18312;51.486;7.144;2023-04-24T02:14:41;9.20;99.90
31733;DHT22;18312;51.486;7.144;2023-04-24T02:17:08;9.20;99.90
31733;DHT22;18312;51.486;7.144;2023-04-24T02:19:34;9.20;99.90
31733;DHT22;18312;51.486;7.144;2023-04-24T02:22:01;9.10;99.90
31733;DHT22;18312;51.486;7.144;2023-04-24T02:24:28;9.00;99.90
31733;DHT22;18312;51.486;7.144;2023-04-24T02:26:54;9.00;99.90
31733;DHT22;18312;51.486;7.144;2023-04-24T02:29:23;9.00;99.90
31733;DHT22;18312;51.486;7.144;2023-04-24T02:31:49;9.10;99.90
31733;DHT22;18312;51.486;7.144;2023-04-24T02:34:30;9.10;99.90
31733;DHT22;18312;51.486;7.144;2023-04-24T02:36:57;9.20;99.90
31733;DHT22;18312;51.486;7.144;2023-04-24T02:39:23;9.20;99.90
31733;DHT22;18312;51.486;7.144;2023-04-24T02:41:50;9.20;99.90
31733;DHT22;18312;51.486;7.144;2023-04-24T02:44:17;9.20;99.90
31733;DHT22;18312;51.486;7.144;2023-04-24T02:46:45;9.10;99.90
31733;DHT22;18312;51.486;7.144;2023-04-24T02:49:11;9.20;99.90
31733;DHT22;18312;51.486;7.144;2023-04-24T02:51:44;9.10;99.90
31733;DHT22;18312;51.486;7.144;2023-04-24T02:54:11;9.10;99.90
31733;DHT22;18312;51.486;7.144;2023-04-24T02:56:38;9.10;99.90
31733;DHT22;18312;51.486;7.144;2023-04-24T02:59:06;9.20;99.90
31733;DHT22;18312;51.486;7.144;2023-04-24T03:01:32;9.20;99.90
31733;DHT22;18312;51.486;7.144;2023-04-24T03:04:09;9.20;99.90
31733;DHT22;18312;51.486;7.144;2023-04-24T03:06:36;9.20;99.90
31733;DHT22;18312;51.486;7.144;2023-04-24T03:09:04;9.30;99.90
31733;DHT22;18312;51.486;7.144;2023-04-24T03:11:31;9.30;99.90
31733;DHT22;18312;51.486;7.144;2023-04-24T03:13:57;9.30;99.90
31733;DHT22;18312;51.486;7.144;2023-04-24T03:16:24;9.40;99.90
31733;DHT22;18312;51.486;7.144;2023-04-24T03:18:51;9.40;99.90
31733;DHT22;18312;51.486;7.144;2023-04-24T03:21:19;9.40;99.90
31733;DHT22;18312;51.486;7.144;2023-04-24T03:23:46;9.40;99.90
31733;DHT22;18312;51.486;7.144;2023-04-24T03:26:12;9.40;99.90
31733;DHT22;18312;51.486;7.144;2023-04-24T03:28:39;9.50;99.90
31733;DHT22;18312;51.486;7.144;2023-04-24T03:31:08;9.50;99.90
31733;DHT22;18312;51.486;7.144;2023-04-24T03:33:35;9.50;99.90
31733;DHT22;18312;51.486;7.144;2023-04-24T03:36:02;9.50;99.90
31733;DHT22;18312;51.486;7.144;2023-04-24T03:38:31;9.50;99.90
31733;DHT22;18312;51.486;7.144;2023-04-24T03:40:58;9.50;99.90
31733;DHT22;18312;51.486;7.144;2023-04-24T03:43:35;9.60;99.90
31733;DHT22;18312;51.486;7.144;2023-04-24T03:46:02;9.60;99.90
31733;DHT22;18312;51.486;7.144;2023-04-24T03:48:29;9.50;99.90
31733;DHT22;18312;51.486;7.144;2023-04-24T03:50:55;9.50;99.90
31733;DHT22;18312;51.486;7.144;2023-04-24T03:53:22;9.60;99.90
31733;DHT22;18312;51.486;7.144;2023-04-24T03:55:51;9.50;99.90
31733;DHT22;18312;51.486;7.144;2023-04-24T03:58:17;9.60;99.90
31733;DHT22;18312;51.486;7.144;2023-04-24T04:00:44;9.60;99.90
31733;DHT22;18312;51.486;7.144;2023-04-24T04:03:11;9.60;99.90
31733;DHT22;18312;51.486;7.144;2023-04-24T04:05:38;9.50;99.90
31733;DHT22;18312;51.486;7.144;2023-04-24T04:08:05;9.60;99.90
31733;DHT22;18312;51.486;7.144;2023-04-24T04:10:32;9.60;99.90
31733;DHT22;18312;51.486;7.144;2023-04-24T04:13:00;9.60;99.90
31733;DHT22;18312;51.486;7.144;2023-04-24T04:15:27;9.60;99.90
31733;DHT22;18312;51.486;7.144;2023-04-24T04:17:54;9.60;99.90
31733;DHT22;18312;51.486;7.144;2023-04-24T04:20:20;9.60;99.90
31733;DHT22;18312;51.486;7.144;2023-04-24T04:22:48;9.60;99.90
31733;DHT22;18312;51.486;7.144;2023-04-24T04:25:15;9.60;99.90
31733;DHT22;18312;51.486;7.144;2023-04-24T04:27:44;9.60;99.90
31733;DHT22;18312;51.486;7.144;2023-04-24T04:30:14;9.60;99.90
31733;DHT22;18312;51.486;7.144;2023-04-24T04:32:42;9.60;99.90
31733;DHT22;18312;51.486;7.144;2023-04-24T04:35:09;9.60;99.90
31733;DHT22;18312;51.486;7.144;2023-04-24T04:37:36;9.60;99.90
31733;DHT22;18312;51.486;7.144;2023-04-24T04:40:03;9.60;99.90
31733;DHT22;18312;51.486;7.144;2023-04-24T04:42:32;9.60;99.90
31733;DHT22;18312;51.486;7.144;2023-04-24T04:44:59;9.60;99.90
31733;DHT22;18312;51.486;7.144;2023-04-24T04:47:27;9.60;99.90
31733;DHT22;18312;51.486;7.144;2023-04-24T04:49:57;9.50;99.90
31733;DHT22;18312;51.486;7.144;2023-04-24T04:52:23;9.60;99.90
31733;DHT22;18312;51.486;7.144;2023-04-24T04:54:51;9.60;99.90
31733;DHT22;18312;51.486;7.144;2023-04-24T04:57:18;9.60;99.90
31733;DHT22;18312;51.486;7.144;2023-04-24T04:59:45;9.60;99.90
31733;DHT22;18312;51.486;7.144;2023-04-24T05:02:12;9.60;99.90
31733;DHT22;18312;51.486;7.144;2023-04-24T05:04:40;9.60;99.90
31733;DHT22;18312;51.486;7.144;2023-04-24T05:07:07;9.60;99.90
31733;DHT22;18312;51.486;7.144;2023-04-24T05:09:34;9.60;99.90
31733;DHT22;18312;51.486;7.144;2023-04-24T05:12:00;9.60;99.90
31733;DHT22;18312;51.486;7.144;2023-04-24T05:14:27;9.70;99.90
31733;DHT22;18312;51.486;7.144;2023-04-24T05:16:57;9.70;99.90
31733;DHT22;18312;51.486;7.144;2023-04-24T05:19:23;9.70;99.90
31733;DHT22;18312;51.486;7.144;2023-04-24T05:21:51;9.70;99.90
31733;DHT22;18312;51.486;7.144;2023-04-24T05:24:18;9.70;99.90
31733;DHT22;18312;51.486;7.144;2023-04-24T05:26:45;9.70;99.90
31733;DHT22;18312;51.486;7.144;2023-04-24T05:29:15;9.60;99.90
31733;DHT22;18312;51.486;7.144;2023-04-24T05:31:41;9.60;99.90
31733;DHT22;18312;51.486;7.144;2023-04-24T05:34:08;9.60;99.90
31733;DHT22;18312;51.486;7.144;2023-04-24T05:36:35;9.50;99.90
31733;DHT22;18312;51.486;7.144;2023-04-24T05:39:03;9.50;99.90
31733;DHT22;18312;51.486;7.144;2023-04-24T05:41:30;9.50;99.90
31733;DHT22;18312;51.486;7.144;2023-04-24T05:43:57;9.30;99.90
31733;DHT22;18312;51.486;7.144;2023-04-24T05:46:24;9.30;99.90
31733;DHT22;18312;51.486;7.144;2023-04-24T05:48:50;9.10;99.90
31733;DHT22;18312;51.486;7.144;2023-04-24T05:51:17;8.90;99.90
31733;DHT22;18312;51.486;7.144;2023-04-24T05:53:44;8.80;99.90
31733;DHT22;18312;51.486;7.144;2023-04-24T05:56:12;8.70;99.90
31733;DHT22;18312;51.486;7.144;2023-04-24T05:58:39;8.70;99.90
31733;DHT22;18312;51.486;7.144;2023-04-24T06:01:06;8.70;99.90
31733;DHT22;18312;51.486;7.144;2023-04-24T06:03:35;8.70;99.90
31733;DHT22;18312;51.486;7.144;2023-04-24T06:06:02;8.70;99.90
31733;DHT22;18312;51.486;7.144;2023-04-24T06:08:29;8.70;99.90
31733;DHT22;18312;51.486;7.144;2023-04-24T06:10:56;8.80;99.90
31733;DHT22;18312;51.486;7.144;2023-04-24T06:13:24;8.90;99.90
31733;DHT22;18312;51.486;7.144;2023-04-24T06:15:51;8.90;99.90
31733;DHT22;18312;51.486;7.144;2023-04-24T06:18:17;9.00;99.90
31733;DHT22;18312;51.486;7.144;2023-04-24T06:20:44;9.00;99.90
31733;DHT22;18312;51.486;7.144;2023-04-24T06:23:11;9.00;99.90
31733;DHT22;18312;51.486;7.144;2023-04-24T06:25:38;9.00;99.90
31733;DHT22;18312;51.486;7.144;2023-04-24T06:28:05;9.00;99.90
31733;DHT22;18312;51.486;7.144;2023-04-24T06:30:35;9.10;99.90
31733;DHT22;18312;51.486;7.144;2023-04-24T06:33:02;9.10;99.90
31733;DHT22;18312;51.486;7.144;2023-04-24T06:35:29;9.10;99.90
31733;DHT22;18312;51.486;7.144;2023-04-24T06:37:55;9.10;99.90
31733;DHT22;18312;51.486;7.144;2023-04-24T06:40:22;9.00;99.90
31733;DHT22;18312;51.486;7.144;2023-04-24T06:42:49;9.00;99.90
31733;DHT22;18312;51.486;7.144;2023-04-24T06:45:16;8.90;99.90
31733;DHT22;18312;51.486;7.144;2023-04-24T06:47:44;8.90;99.90
31733;DHT22;18312;51.486;7.144;2023-04-24T06:50:11;8.90;99.90
31733;DHT22;18312;51.486;7.144;2023-04-24T06:52:38;9.10;99.90
31733;DHT22;18312;51.486;7.144;2023-04-24T06:55:05;9.30;99.90
31733;DHT22;18312;51.486;7.144;2023-04-24T06:57:32;9.30;99.90
31733;DHT22;18312;51.486;7.144;2023-04-24T06:59:58;9.20;99.90
31733;DHT22;18312;51.486;7.144;2023-04-24T07:02:25;9.20;99.90
31733;DHT22;18312;51.486;7.144;2023-04-24T07:04:53;9.20;99.90
31733;DHT22;18312;51.486;7.144;2023-04-24T07:07:19;9.20;99.90
31733;DHT22;18312;51.486;7.144;2023-04-24T07:09:46;9.30;99.90
31733;DHT22;18312;51.486;7.144;2023-04-24T07:12:13;9.40;99.90
31733;DHT22;18312;51.486;7.144;2023-04-24T07:14:42;9.40;99.90
31733;DHT22;18312;51.486;7.144;2023-04-24T07:17:08;9.20;99.90
31733;DHT22;18312;51.486;7.144;2023-04-24T07:19:35;9.20;99.90
31733;DHT22;18312;51.486;7.144;2023-04-24T07:22:03;9.10;99.90
31733;DHT22;18312;51.486;7.144;2023-04-24T07:24:30;9.10;99.90
31733;DHT22;18312;51.486;7.144;2023-04-24T07:26:57;9.20;99.90
31733;DHT22;18312;51.486;7.144;2023-04-24T07:29:24;9.40;99.90
31733;DHT22;18312;51.486;7.144;2023-04-24T07:31:51;9.40;99.90
31733;DHT22;18312;51.486;7.144;2023-04-24T07:34:19;9.50;99.90
31733;DHT22;18312;51.486;7.144;2023-04-24T07:36:45;9.50;99.90
31733;DHT22;18312;51.486;7.144;2023-04-24T07:39:14;9.40;99.90
31733;DHT22;18312;51.486;7.144;2023-04-24T07:41:40;9.30;99.90
31733;DHT22;18312;51.486;7.144;2023-04-24T07:44:07;9.30;99.90
31733;DHT22;18312;51.486;7.144;2023-04-24T07:46:34;9.30;99.90
31733;DHT22;18312;51.486;7.144;2023-04-24T07:49:01;9.30;99.90
31733;DHT22;18312;51.486;7.144;2023-04-24T07:51:28;9.30;99.90
31733;DHT22;18312;51.486;7.144;2023-04-24T07:53:56;9.40;99.90
31733;DHT22;18312;51.486;7.144;2023-04-24T07:56:24;9.40;99.90
31733;DHT22;18312;51.486;7.144;2023-04-24T07:58:51;9.40;99.90
31733;DHT22;18312;51.486;7.144;2023-04-24T08:01:18;9.50;99.90
31733;DHT22;18312;51.486;7.144;2023-04-24T08:03:44;9.70;99.90
31733;DHT22;18312;51.486;7.144;2023-04-24T08:06:11;9.70;99.90
31733;DHT22;18312;51.486;7.144;2023-04-24T08:08:38;9.60;99.90
31733;DHT22;18312;51.486;7.144;2023-04-24T08:11:04;9.60;99.90
31733;DHT22;18312;51.486;7.144;2023-04-24T08:13:32;9.40;99.90
31733;DHT22;18312;51.486;7.144;2023-04-24T08:16:01;9.30;99.90
31733;DHT22;18312;51.486;7.144;2023-04-24T08:18:28;9.30;99.90
31733;DHT22;18312;51.486;7.144;2023-04-24T08:20:54;9.20;99.90
31733;DHT22;18312;51.486;7.144;2023-04-24T08:23:23;9.20;99.90
31733;DHT22;18312;51.486;7.144;2023-04-24T08:25:50;9.30;99.90
31733;DHT22;18312;51.486;7.144;2023-04-24T08:28:16;9.20;99.90
31733;DHT22;18312;51.486;7.144;2023-04-24T08:30:47;9.10;99.90
31733;DHT22;18312;51.486;7.144;2023-04-24T08:33:13;9.00;99.90
31733;DHT22;18312;51.486;7.144;2023-04-24T08:35:42;8.90;99.90
31733;DHT22;18312;51.486;7.144;2023-04-24T08:38:09;8.80;99.90
31733;DHT22;18312;51.486;7.144;2023-04-24T08:43:11;8.60;99.90
31733;DHT22;18312;51.486;7.144;2023-04-24T08:45:38;8.60;99.90
31733;DHT22;18312;51.486;7.144;2023-04-24T08:48:06;8.60;99.90
31733;DHT22;18312;51.486;7.144;2023-04-24T08:50:33;8.50;99.90
31733;DHT22;18312;51.486;7.144;2023-04-24T08:53:00;8.40;99.90
31733;DHT22;18312;51.486;7.144;2023-04-24T08:55:27;8.50;99.90
31733;DHT22;18312;51.486;7.144;2023-04-24T08:57:56;8.40;99.90
31733;DHT22;18312;51.486;7.144;2023-04-24T09:00:23;8.40;99.90
31733;DHT22;18312;51.486;7.144;2023-04-24T09:02:51;8.40;99.90
31733;DHT22;18312;51.486;7.144;2023-04-24T09:05:20;8.40;99.90
31733;DHT22;18312;51.486;7.144;2023-04-24T09:07:49;8.40;99.90
31733;DHT22;18312;51.486;7.144;2023-04-24T09:10:20;8.40;99.90
31733;DHT22;18312;51.486;7.144;2023-04-24T09:12:47;8.50;99.90
31733;DHT22;18312;51.486;7.144;2023-04-24T09:15:15;8.60;99.90
31733;DHT22;18312;51.486;7.144;2023-04-24T09:17:43;8.70;99.90
31733;DHT22;18312;51.486;7.144;2023-04-24T09:20:11;8.80;99.90
31733;DHT22;18312;51.486;7.144;2023-04-24T09:22:39;8.80;99.90
31733;DHT22;18312;51.486;7.144;2023-04-24T09:25:19;8.90;99.90
31733;DHT22;18312;51.486;7.144;2023-04-24T09:27:45;8.90;99.90
31733;DHT22;18312;51.486;7.144;2023-04-24T09:30:24;8.90;99.90
31733;DHT22;18312;51.486;7.144;2023-04-24T09:32:53;9.00;99.90
31733;DHT22;18312;51.486;7.144;2023-04-24T09:35:35;9.00;99.90
31733;DHT22;18312;51.486;7.144;2023-04-24T09:38:03;9.00;99.90
31733;DHT22;18312;51.486;7.144;2023-04-24T09:40:30;8.90;99.90
31733;DHT22;18312;51.486;7.144;2023-04-24T09:43:10;8.70;99.90
31733;DHT22;18312;51.486;7.144;2023-04-24T09:45:37;8.90;99.90
31733;DHT22;18312;51.486;7.144;2023-04-24T09:48:04;8.90;99.90
31733;DHT22;18312;51.486;7.144;2023-04-24T09:53:19;8.50;99.90
31733;DHT22;18312;51.486;7.144;2023-04-24T09:55:55;8.30;99.90
31733;DHT22;18312;51.486;7.144;2023-04-24T09:58:25;8.30;99.90
31733;DHT22;18312;51.486;7.144;2023-04-24T10:00:53;8.40;99.90
31733;DHT22;18312;51.486;7.144;2023-04-24T10:03:20;8.50;99.90
31733;DHT22;18312;51.486;7.144;2023-04-24T10:05:46;8.30;99.90
31733;DHT22;18312;51.486;7.144;2023-04-24T10:08:13;8.30;99.90
31733;DHT22;18312;51.486;7.144;2023-04-24T10:10:42;8.10;99.90
31733;DHT22;18312;51.486;7.144;2023-04-24T10:13:09;8.20;99.90
31733;DHT22;18312;51.486;7.144;2023-04-24T10:15:36;8.20;99.90
31733;DHT22;18312;51.486;7.144;2023-04-24T10:18:04;8.10;99.90
31733;DHT22;18312;51.486;7.144;2023-04-24T10:20:32;8.30;99.90
31733;DHT22;18312;51.486;7.144;2023-04-24T10:22:59;8.20;99.90
31733;DHT22;18312;51.486;7.144;2023-04-24T10:25:26;8.30;99.90
31733;DHT22;18312;51.486;7.144;2023-04-24T10:27:54;8.20;99.90
31733;DHT22;18312;51.486;7.144;2023-04-24T10:30:25;8.50;99.90
31733;DHT22;18312;51.486;7.144;2023-04-24T10:32:53;8.60;99.90
31733;DHT22;18312;51.486;7.144;2023-04-24T10:35:21;8.70;99.90
31733;DHT22;18312;51.486;7.144;2023-04-24T10:37:56;8.70;99.90
31733;DHT22;18312;51.486;7.144;2023-04-24T10:40:25;8.70;99.90
31733;DHT22;18312;51.486;7.144;2023-04-24T10:42:52;8.60;99.90
31733;DHT22;18312;51.486;7.144;2023-04-24T10:45:21;8.60;99.90
31733;DHT22;18312;51.486;7.144;2023-04-24T10:47:51;8.50;99.90
31733;DHT22;18312;51.486;7.144;2023-04-24T10:50:19;8.60;99.90
31733;DHT22;18312;51.486;7.144;2023-04-24T10:52:45;8.80;99.90
31733;DHT22;18312;51.486;7.144;2023-04-24T10:55:13;8.80;99.90
31733;DHT22;18312;51.486;7.144;2023-04-24T10:57:43;8.90;99.90
31733;DHT22;18312;51.486;7.144;2023-04-24T11:00:28;9.10;99.90
31733;DHT22;18312;51.486;7.144;2023-04-24T11:02:55;9.50;99.90
31733;DHT22;18312;51.486;7.144;2023-04-24T11:05:23;9.40;99.90
31733;DHT22;18312;51.486;7.144;2023-04-24T11:08:16;9.40;99.90
31733;DHT22;18312;51.486;7.144;2023-04-24T11:10:54;9.70;99.90
31733;DHT22;18312;51.486;7.144;2023-04-24T11:13:21;9.60;99.90
31733;DHT22;18312;51.486;7.144;2023-04-24T11:18:40;9.50;99.90
31733;DHT22;18312;51.486;7.144;2023-04-24T11:21:16;9.50;99.90
31733;DHT22;18312;51.486;7.144;2023-04-24T11:23:43;9.60;99.90
31733;DHT22;18312;51.486;7.144;2023-04-24T11:26:11;9.50;99.90
31733;DHT22;18312;51.486;7.144;2023-04-24T11:28:43;9.60;99.90
31733;DHT22;18312;51.486;7.144;2023-04-24T11:33:56;10.00;99.90
31733;DHT22;18312;51.486;7.144;2023-04-24T11:36:23;10.10;99.90
31733;DHT22;18312;51.486;7.144;2023-04-24T11:38:50;10.70;99.90
31733;DHT22;18312;51.486;7.144;2023-04-24T11:41:17;10.90;99.90
31733;DHT22;18312;51.486;7.144;2023-04-24T11:43:47;11.50;99.90
31733;DHT22;18312;51.486;7.144;2023-04-24T11:46:16;11.30;99.90
31733;DHT22;18312;51.486;7.144;2023-04-24T11:48:44;10.70;99.90
31733;DHT22;18312;51.486;7.144;2023-04-24T11:51:14;10.70;99.90
31733;DHT22;18312;51.486;7.144;2023-04-24T11:53:41;10.50;99.90
31733;DHT22;18312;51.486;7.144;2023-04-24T11:56:08;10.20;99.90
31733;DHT22;18312;51.486;7.144;2023-04-24T11:58:35;10.10;99.90
31733;DHT22;18312;51.486;7.144;2023-04-24T12:01:02;9.80;99.90
31733;DHT22;18312;51.486;7.144;2023-04-24T12:03:29;9.60;99.90
31733;DHT22;18312;51.486;7.144;2023-04-24T12:06:05;9.50;99.90
31733;DHT22;18312;51.486;7.144;2023-04-24T12:08:34;9.50;99.90
31733;DHT22;18312;51.486;7.144;2023-04-24T12:11:03;9.70;99.90
31733;DHT22;18312;51.486;7.144;2023-04-24T12:13:32;9.90;99.90
31733;DHT22;18312;51.486;7.144;2023-04-24T12:15:59;10.40;99.90
31733;DHT22;18312;51.486;7.144;2023-04-24T12:18:26;10.50;99.90
31733;DHT22;18312;51.486;7.144;2023-04-24T12:20:54;10.80;99.90
31733;DHT22;18312;51.486;7.144;2023-04-24T12:23:33;10.90;99.90
31733;DHT22;18312;51.486;7.144;2023-04-24T12:26:03;11.10;99.90
31733;DHT22;18312;51.486;7.144;2023-04-24T12:28:34;11.00;99.90
31733;DHT22;18312;51.486;7.144;2023-04-24T12:31:08;10.90;99.90
31733;DHT22;18312;51.486;7.144;2023-04-24T12:33:35;11.00;99.90
31733;DHT22;18312;51.486;7.144;2023-04-24T12:36:04;10.80;99.90
31733;DHT22;18312;51.486;7.144;2023-04-24T12:38:32;10.90;99.90
31733;DHT22;18312;51.486;7.144;2023-04-24T12:41:16;10.70;99.90
31733;DHT22;18312;51.486;7.144;2023-04-24T12:43:51;10.60;99.90
31733;DHT22;18312;51.486;7.144;2023-04-24T12:46:18;10.30;99.90
31733;DHT22;18312;51.486;7.144;2023-04-24T12:48:47;10.20;99.90
31733;DHT22;18312;51.486;7.144;2023-04-24T12:51:14;10.00;99.90
31733;DHT22;18312;51.486;7.144;2023-04-24T12:53:40;9.90;99.90
31733;DHT22;18312;51.486;7.144;2023-04-24T12:56:08;9.90;99.90
31733;DHT22;18312;51.486;7.144;2023-04-24T12:58:36;9.80;99.90
31733;DHT22;18312;51.486;7.144;2023-04-24T13:03:36;10.30;99.90
31733;DHT22;18312;51.486;7.144;2023-04-24T13:08:54;10.60;99.90
31733;DHT22;18312;51.486;7.144;2023-04-24T13:11:29;10.80;99.90
31733;DHT22;18312;51.486;7.144;2023-04-24T13:13:57;11.20;99.90
31733;DHT22;18312;51.486;7.144;2023-04-24T13:16:25;11.30;99.90
31733;DHT22;18312;51.486;7.144;2023-04-24T13:18:54;11.30;99.90
31733;DHT22;18312;51.486;7.144;2023-04-24T13:21:21;11.10;99.90
31733;DHT22;18312;51.486;7.144;2023-04-24T13:23:48;11.10;99.90
31733;DHT22;18312;51.486;7.144;2023-04-24T13:26:15;11.00;99.90
31733;DHT22;18312;51.486;7.144;2023-04-24T13:28:42;10.90;99.90
31733;DHT22;18312;51.486;7.144;2023-04-24T13:31:16;10.90;99.90
31733;DHT22;18312;51.486;7.144;2023-04-24T13:33:43;10.90;99.90
31733;DHT22;18312;51.486;7.144;2023-04-24T13:36:10;10.50;99.90
31733;DHT22;18312;51.486;7.144;2023-04-24T13:38:36;10.40;99.90
31733;DHT22;18312;51.486;7.144;2023-04-24T13:47:26;10.80;99.90
31733;DHT22;18312;51.486;7.144;2023-04-24T13:49:55;10.90;99.90
31733;DHT22;18312;51.486;7.144;2023-04-24T13:52:24;10.80;99.90
31733;DHT22;18312;51.486;7.144;2023-04-24T13:54:51;10.60;99.90
31733;DHT22;18312;51.486;7.144;2023-04-24T13:57:18;10.60;99.90
31733;DHT22;18312;51.486;7.144;2023-04-24T13:59:45;10.40;99.90
31733;DHT22;18312;51.486;7.144;2023-04-24T14:02:12;10.40;99.90
31733;DHT22;18312;51.486;7.144;2023-04-24T14:04:40;10.40;99.90
31733;DHT22;18312;51.486;7.144;2023-04-24T14:07:07;10.60;99.90
31733;DHT22;18312;51.486;7.144;2023-04-24T14:09:34;10.90;99.90
31733;DHT22;18312;51.486;7.144;2023-04-24T14:12:01;11.20;99.90
31733;DHT22;18312;51.486;7.144;2023-04-24T14:14:29;11.60;99.90
31733;DHT22;18312;51.486;7.144;2023-04-24T14:16:58;11.60;99.90
31733;DHT22;18312;51.486;7.144;2023-04-24T14:19:25;11.90;99.90
31733;DHT22;18312;51.486;7.144;2023-04-24T14:21:56;12.20;99.90
31733;DHT22;18312;51.486;7.144;2023-04-24T14:24:27;11.70;99.90
31733;DHT22;18312;51.486;7.144;2023-04-24T14:26:54;11.60;99.90
31733;DHT22;18312;51.486;7.144;2023-04-24T14:29:21;11.40;99.90
31733;DHT22;18312;51.486;7.144;2023-04-24T14:31:48;11.30;99.90
31733;DHT22;18312;51.486;7.144;2023-04-24T14:34:15;11.30;99.90
31733;DHT22;18312;51.486;7.144;2023-04-24T14:36:41;11.30;99.90
31733;DHT22;18312;51.486;7.144;2023-04-24T14:39:10;11.10;99.90
31733;DHT22;18312;51.486;7.144;2023-04-24T14:41:41;11.00;99.90
31733;DHT22;18312;51.486;7.144;2023-04-24T14:44:07;11.00;99.90
31733;DHT22;18312;51.486;7.144;2023-04-24T14:46:34;10.90;99.90
31733;DHT22;18312;51.486;7.144;2023-04-24T14:49:01;10.70;99.90
31733;DHT22;18312;51.486;7.144;2023-04-24T14:51:28;10.60;99.90
31733;DHT22;18312;51.486;7.144;2023-04-24T14:53:56;10.30;99.90
31733;DHT22;18312;51.486;7.144;2023-04-24T14:56:24;10.10;99.90
31733;DHT22;18312;51.486;7.144;2023-04-24T14:58:50;10.10;99.90
31733;DHT22;18312;51.486;7.144;2023-04-24T15:01:18;10.00;99.90
31733;DHT22;18312;51.486;7.144;2023-04-24T15:03:45;9.90;99.90
31733;DHT22;18312;51.486;7.144;2023-04-24T15:06:12;9.70;99.90
31733;DHT22;18312;51.486;7.144;2023-04-24T15:08:38;9.60;99.90
31733;DHT22;18312;51.486;7.144;2023-04-24T15:11:05;9.20;99.90
31733;DHT22;18312;51.486;7.144;2023-04-24T15:13:33;9.00;99.90
31733;DHT22;18312;51.486;7.144;2023-04-24T15:16:00;9.00;99.90
31733;DHT22;18312;51.486;7.144;2023-04-24T15:18:27;9.50;99.90
31733;DHT22;18312;51.486;7.144;2023-04-24T15:20:54;9.80;99.90
31733;DHT22;18312;51.486;7.144;2023-04-24T15:23:21;9.90;99.90
31733;DHT22;18312;51.486;7.144;2023-04-24T15:25:48;10.20;99.90
31733;DHT22;18312;51.486;7.144;2023-04-24T15:28:14;10.50;99.90
31733;DHT22;18312;51.486;7.144;2023-04-24T15:30:42;10.70;99.90
31733;DHT22;18312;51.486;7.144;2023-04-24T15:33:09;11.20;99.90
31733;DHT22;18312;51.486;7.144;2023-04-24T15:35:36;11.20;99.90
31733;DHT22;18312;51.486;7.144;2023-04-24T15:38:02;11.70;99.90
31733;DHT22;18312;51.486;7.144;2023-04-24T15:40:29;12.60;99.90
31733;DHT22;18312;51.486;7.144;2023-04-24T15:42:56;14.40;99.90
31733;DHT22;18312;51.486;7.144;2023-04-24T15:45:22;14.00;99.90
31733;DHT22;18312;51.486;7.144;2023-04-24T15:47:50;14.10;99.90
31733;DHT22;18312;51.486;7.144;2023-04-24T15:50:17;13.20;99.90
31733;DHT22;18312;51.486;7.144;2023-04-24T15:52:46;14.40;99.90
31733;DHT22;18312;51.486;7.144;2023-04-24T15:55:12;13.90;99.90
31733;DHT22;18312;51.486;7.144;2023-04-24T15:57:39;13.10;99.90
31733;DHT22;18312;51.486;7.144;2023-04-24T16:00:06;13.50;99.90
31733;DHT22;18312;51.486;7.144;2023-04-24T16:02:34;12.70;99.90
31733;DHT22;18312;51.486;7.144;2023-04-24T16:05:02;12.10;99.90
31733;DHT22;18312;51.486;7.144;2023-04-24T16:07:28;11.90;99.90
31733;DHT22;18312;51.486;7.144;2023-04-24T16:09:55;11.60;99.90